VOBZ/VGA METAR and TAF weather

Enter ICAO airport designator
Station Type Date Time Source
VOBZ METAR 2019/10/15 08:30 UTC NOAA

VOBZ 150830Z 10010KT 6000 FEW025 33/23 Q1009 NOSIG


Station Type Date Time Source
VOBZ Decoded METAR 2019/10/15 08:30 UTC NOAA

Vijayawada / Gannavaram, India (VOBZ) 16-32N 080-48E 24M
Oct 15, 2019 - 04:30 AM EDT / 2019.10.15 0830 UTC
Wind: from the E (100 degrees) at 12 MPH (10 KT):0
Visibility: 3 mile(s):0
Sky conditions: mostly clear
Temperature: 91 F (33 C)
Heat index: 99.1 F (37.3 C):1
Dew Point: 73 F (23 C)
Relative Humidity: 55%
Pressure (altimeter): 29.80 in. Hg (1009 hPa)
ob: VOBZ 150830Z 10010KT 6000 FEW025 33/23 Q1009 NOSIG
cycle: 8

Station Type Date Time Source
VOBZ TAF 2019/08/28 09:00 UTC NOAA

VOBZ 280800Z 2809/2818 29008KT 6000 FEW020 SCT100
TEMPO 2809/2815 4000 .RA SCT010 OVC080
BECMG 2813/2815 18005KT 5000 HZ

Example: see airport list